createdAt,value
2018-10-05T00:01:12.090Z,4.47
2018-10-05T00:11:15.344Z,4.37
2018-10-05T00:21:18.584Z,4.60
2018-10-05T00:31:22.657Z,4.47
2018-10-05T00:41:26.214Z,4.43
2018-10-05T00:51:29.554Z,4.40
2018-10-05T01:01:32.873Z,4.07
2018-10-05T01:11:36.233Z,4.47
2018-10-05T01:21:39.412Z,4.03
2018-10-05T01:31:42.670Z,4.50
2018-10-05T01:41:45.901Z,4.17
2018-10-05T01:51:49.153Z,3.97
2018-10-05T02:01:52.421Z,4.83
2018-10-05T02:11:55.669Z,4.43
2018-10-05T02:21:58.897Z,4.97
2018-10-05T02:32:02.145Z,4.50
2018-10-05T02:42:05.436Z,5.03
2018-10-05T02:52:08.816Z,5.03
2018-10-05T03:02:30.873Z,5.00
2018-10-05T03:12:34.149Z,5.17
2018-10-05T03:22:37.431Z,5.70
2018-10-05T03:32:40.688Z,6.40
2018-10-05T03:42:43.964Z,7.93
2018-10-05T03:52:47.236Z,8.00
2018-10-05T04:02:51.488Z,9.70
2018-10-05T04:12:54.744Z,9.33
2018-10-05T04:22:58.033Z,9.60
2018-10-05T04:33:01.277Z,6.30
2018-10-05T04:43:04.513Z,7.13
2018-10-05T04:53:07.825Z,8.53
2018-10-05T05:03:11.052Z,9.97
2018-10-05T05:13:14.320Z,9.17
2018-10-05T05:23:21.020Z,7.93
2018-10-05T05:33:24.330Z,8.00
2018-10-05T05:43:27.553Z,9.47
2018-10-05T05:53:30.776Z,11.37
2018-10-05T06:03:34.520Z,10.70
2018-10-05T06:13:37.965Z,9.53
2018-10-05T06:23:41.232Z,8.80
2018-10-05T06:33:44.492Z,8.93
2018-10-05T06:43:47.720Z,9.10
2018-10-05T06:53:50.973Z,9.63
2018-10-05T07:03:54.229Z,10.33
2018-10-05T07:13:57.465Z,9.63
2018-10-05T07:24:00.755Z,10.67
2018-10-05T07:34:03.975Z,10.97
2018-10-05T07:44:07.222Z,10.80
2018-10-05T07:54:10.448Z,11.30
2018-10-05T08:04:13.704Z,12.60
2018-10-05T08:14:16.935Z,11.63
2018-10-05T08:24:20.173Z,11.27
2018-10-05T08:34:23.463Z,10.60
2018-10-05T08:44:26.636Z,11.97
2018-10-05T08:54:30.076Z,11.13
2018-10-05T09:04:33.305Z,11.57
2018-10-05T09:14:36.556Z,12.33
2018-10-05T09:24:39.776Z,12.10
2018-10-05T09:34:43.064Z,12.57
2018-10-05T09:44:46.364Z,12.23
2018-10-05T09:54:49.591Z,11.63
2018-10-05T10:04:52.872Z,11.33
2018-10-05T10:14:56.168Z,10.90
2018-10-05T10:24:59.328Z,9.77
2018-10-05T10:35:02.540Z,9.83
2018-10-05T10:45:06.157Z,10.00
2018-10-05T10:55:09.397Z,8.63
2018-10-05T11:05:12.618Z,8.07
2018-10-05T11:15:15.840Z,8.23
2018-10-05T11:25:19.048Z,7.67
2018-10-05T11:35:22.308Z,7.40
2018-10-05T11:45:25.572Z,6.77
2018-10-05T11:55:28.905Z,6.40
2018-10-05T12:05:32.277Z,6.60
2018-10-05T12:15:35.616Z,6.77
2018-10-05T12:25:38.942Z,6.47
2018-10-05T12:35:42.296Z,6.00
2018-10-05T12:45:45.629Z,8.47
2018-10-05T12:55:48.968Z,6.50
2018-10-05T13:05:52.323Z,5.03
2018-10-05T13:15:55.568Z,6.23
2018-10-05T13:25:59.128Z,4.40
2018-10-05T13:36:04.041Z,3.83
2018-10-05T13:46:07.536Z,3.80
2018-10-05T13:56:11.171Z,3.57
2018-10-05T14:06:14.884Z,3.60
2018-10-05T14:16:18.196Z,5.17
2018-10-05T14:26:21.513Z,3.77
2018-10-05T14:36:24.862Z,3.70
2018-10-05T14:46:28.245Z,3.90
2018-10-05T14:56:31.543Z,3.40
2018-10-05T15:06:34.895Z,3.87
2018-10-05T15:16:38.205Z,4.30
2018-10-05T15:26:41.454Z,4.00
2018-10-05T15:36:44.984Z,3.30
2018-10-05T15:46:56.810Z,4.50
2018-10-05T15:57:00.047Z,3.83
2018-10-05T16:07:03.302Z,4.00
2018-10-05T16:17:06.626Z,4.23
2018-10-05T16:27:10.553Z,3.90
2018-10-05T16:37:13.788Z,3.70
2018-10-05T16:47:16.988Z,6.60
2018-10-05T16:57:20.618Z,4.10
2018-10-05T17:07:24.012Z,6.53
2018-10-05T17:17:27.324Z,4.90
2018-10-05T17:27:30.539Z,5.20
2018-10-05T17:37:33.793Z,6.03
2018-10-05T17:47:37.012Z,5.73
2018-10-05T17:57:40.348Z,6.20
2018-10-05T18:07:43.572Z,7.13
2018-10-05T18:17:46.813Z,6.50
2018-10-05T18:27:50.175Z,7.77
2018-10-05T18:37:53.424Z,8.77
2018-10-05T18:47:56.702Z,8.33
2018-10-05T18:57:59.905Z,7.70
2018-10-05T19:08:03.108Z,8.00
2018-10-05T19:18:06.396Z,8.10
2018-10-05T19:28:10.567Z,8.83
2018-10-05T19:38:13.800Z,8.83
2018-10-05T19:48:17.021Z,9.07
2018-10-05T19:58:20.227Z,9.10
2018-10-05T20:08:23.432Z,9.70
2018-10-05T20:18:26.827Z,11.10
2018-10-05T20:28:29.891Z,9.40
2018-10-05T20:38:33.134Z,9.37
2018-10-05T20:48:36.352Z,9.30
2018-10-05T20:58:39.636Z,9.20
2018-10-05T21:08:42.869Z,9.07
2018-10-05T21:18:46.102Z,8.50
2018-10-05T21:28:49.440Z,8.30
2018-10-05T21:38:52.911Z,7.73
2018-10-05T21:48:56.123Z,8.53
2018-10-05T21:58:59.404Z,9.10
2018-10-05T22:09:02.756Z,8.20
2018-10-05T22:19:06.324Z,9.40
2018-10-05T22:29:09.525Z,9.37
2018-10-05T22:39:15.340Z,8.10
2018-10-05T22:49:18.569Z,8.47
2018-10-05T22:59:21.776Z,9.17
2018-10-05T23:09:25.012Z,8.80
2018-10-05T23:19:28.264Z,8.17
2018-10-05T23:29:31.484Z,7.97
2018-10-05T23:39:34.698Z,8.57
2018-10-05T23:49:37.919Z,7.93
2018-10-05T23:59:41.144Z,7.50
